CYPY

Fort Chipewyan Airport

Fort Chipewyan, Alberta, Canada
METAR CYPY 231400Z AUTO 24004KT 9SM CLR 19/13 A2976 RMK SLP083 DENSITY ALT 1600FT
Observed Flight Rules
May-23 @ 14:00 UTC (an hour ago) Visual Flight Rules
Wind Visibility Clouds
240° at 4 knots 9 miles
  • Clear skies
Temperatures Readings
Current 19°C / 66°F
Dewpoint 13°C / 55°F
Humidity 68%
Altimeter 29.76" Hg
Pressure 1008.3 hPa
Elevation 232
METAR CYPY 231400Z AUTO 24004KT 9SM CLR 19/13 A2976 RMK SLP083 DENSITY ALT 1600FT
Observed Flight Rules
May-23 @ 14:00 UTC
(an hour ago)
VFR
Wind Visibility
240° at 4 knots 9 miles
Clouds
  • Clear skies
Temperature Dewpoint
19°C / 66°F 13°C / 55°F
Humidity Altimeter Pressure
68% 29.76" Hg 1008.3 hPa